createdAt,value
2019-04-30T00:01:07.544Z,25.80
2019-04-30T00:03:38.326Z,23.57
2019-04-30T00:06:07.471Z,26.57
2019-04-30T00:08:39.168Z,26.43
2019-04-30T00:11:06.451Z,30.13
2019-04-30T00:13:35.920Z,28.00
2019-04-30T00:16:05.379Z,28.63
2019-04-30T00:18:37.921Z,28.57
2019-04-30T00:21:05.461Z,26.80
2019-04-30T00:23:35.919Z,29.77
2019-04-30T00:26:09.907Z,30.67
2019-04-30T00:28:35.381Z,28.00
2019-04-30T00:31:05.511Z,28.17
2019-04-30T00:33:35.385Z,28.43
2019-04-30T00:36:05.069Z,31.73
2019-04-30T00:38:37.731Z,30.40
2019-04-30T00:41:06.930Z,26.10
2019-04-30T00:43:35.380Z,32.10
2019-04-30T00:46:05.082Z,26.90
2019-04-30T00:48:35.563Z,28.37
2019-04-30T00:51:07.481Z,29.87
2019-04-30T00:53:35.792Z,30.47
2019-04-30T00:56:05.674Z,28.63
2019-04-30T00:58:35.623Z,28.57
2019-04-30T01:01:17.126Z,28.33
2019-04-30T01:03:49.552Z,30.27
2019-04-30T01:06:26.842Z,28.50
2019-04-30T01:08:48.218Z,29.07
2019-04-30T01:11:16.830Z,30.23
2019-04-30T01:13:50.218Z,26.57
2019-04-30T01:16:15.627Z,28.10
2019-04-30T01:18:44.194Z,28.50
2019-04-30T01:21:12.819Z,29.47
2019-04-30T01:23:48.203Z,29.90
2019-04-30T01:26:12.165Z,30.60
2019-04-30T01:28:40.881Z,27.43
2019-04-30T01:31:09.966Z,28.37
2019-04-30T01:33:39.048Z,29.60
2019-04-30T01:36:09.573Z,29.60
2019-04-30T01:38:40.041Z,33.10
2019-04-30T01:41:09.477Z,32.70
2019-04-30T01:43:38.610Z,30.73
2019-04-30T01:46:09.398Z,32.10
2019-04-30T01:48:39.187Z,30.37
2019-04-30T01:51:08.982Z,28.17
2019-04-30T01:53:38.743Z,30.17
2019-04-30T01:56:15.074Z,29.37
2019-04-30T01:58:49.529Z,29.17
2019-04-30T02:01:23.021Z,28.93
2019-04-30T02:03:51.584Z,28.77
2019-04-30T02:06:20.190Z,29.93
2019-04-30T02:08:49.363Z,28.57
2019-04-30T02:11:18.993Z,30.60
2019-04-30T02:13:49.188Z,29.43
2019-04-30T02:16:18.678Z,30.87
2019-04-30T02:18:49.525Z,30.40
2019-04-30T02:21:19.521Z,28.97
2019-04-30T02:23:49.276Z,28.30
2019-04-30T02:26:18.718Z,28.90
2019-04-30T02:28:49.375Z,27.90
2019-04-30T02:31:19.335Z,29.33
2019-04-30T02:33:50.244Z,27.73
2019-04-30T02:36:29.957Z,28.87
2019-04-30T02:38:59.519Z,31.03
2019-04-30T02:41:29.789Z,28.43
2019-04-30T02:43:59.874Z,29.13
2019-04-30T02:46:32.345Z,29.10
2019-04-30T02:49:01.035Z,29.50
2019-04-30T02:51:32.406Z,26.57
2019-04-30T02:54:12.884Z,28.20
2019-04-30T02:56:42.990Z,27.80
2019-04-30T02:59:11.559Z,29.30
2019-04-30T03:01:40.620Z,27.87
2019-04-30T03:04:09.814Z,29.67
2019-04-30T03:06:40.112Z,25.33
2019-04-30T03:09:10.273Z,27.87
2019-04-30T03:11:40.471Z,33.13
2019-04-30T03:14:10.241Z,26.80
2019-04-30T03:16:44.070Z,27.57
2019-04-30T03:19:14.256Z,30.50
2019-04-30T03:21:50.400Z,26.10
2019-04-30T03:24:20.199Z,26.30
2019-04-30T03:26:50.044Z,28.23
2019-04-30T03:29:20.391Z,25.30
2019-04-30T03:31:52.303Z,24.07
2019-04-30T03:34:25.148Z,25.10
2019-04-30T03:36:50.410Z,24.80
2019-04-30T03:39:19.851Z,25.03
2019-04-30T03:41:50.253Z,27.93
2019-04-30T03:44:25.437Z,28.30
2019-04-30T03:46:49.953Z,28.13
2019-04-30T03:49:20.319Z,24.20
2019-04-30T03:51:49.876Z,24.03
2019-04-30T03:54:19.402Z,26.60
2019-04-30T03:56:50.147Z,27.17
2019-04-30T03:59:19.942Z,26.97
2019-04-30T04:01:53.345Z,26.43
2019-04-30T04:04:30.940Z,24.63
2019-04-30T04:07:17.195Z,28.20
2019-04-30T04:10:03.802Z,31.40
2019-04-30T04:12:32.347Z,24.50
2019-04-30T04:15:03.908Z,25.40
2019-04-30T04:17:31.620Z,25.57
2019-04-30T04:20:00.353Z,28.13
2019-04-30T04:22:30.557Z,26.90
2019-04-30T04:25:00.100Z,27.20
2019-04-30T04:27:30.193Z,30.57
2019-04-30T04:30:01.189Z,22.73
2019-04-30T04:32:30.714Z,23.13
2019-04-30T04:35:00.328Z,27.87
2019-04-30T04:37:30.223Z,25.90
2019-04-30T04:39:59.690Z,24.27
2019-04-30T04:42:30.035Z,27.60
2019-04-30T04:44:59.567Z,28.90
2019-04-30T04:47:30.953Z,26.50
2019-04-30T04:50:00.689Z,25.80
2019-04-30T04:52:31.557Z,27.50
2019-04-30T04:55:00.410Z,27.07
2019-04-30T04:57:30.370Z,31.10
2019-04-30T05:00:06.577Z,26.30
2019-04-30T05:02:40.555Z,30.20
2019-04-30T05:05:09.771Z,26.27
2019-04-30T05:07:39.925Z,25.93
2019-04-30T05:10:09.283Z,27.37
2019-04-30T05:12:39.864Z,25.63
2019-04-30T05:15:09.550Z,32.03
2019-04-30T05:17:39.736Z,28.20
2019-04-30T05:20:10.145Z,32.53
2019-04-30T05:22:39.053Z,23.70
2019-04-30T05:25:08.828Z,27.73
2019-04-30T05:27:39.296Z,26.27
2019-04-30T05:30:11.752Z,26.43
2019-04-30T05:32:39.136Z,26.13
2019-04-30T05:35:09.523Z,29.70
2019-04-30T05:37:38.615Z,25.80
2019-04-30T05:40:09.155Z,27.50
2019-04-30T05:42:38.793Z,25.13
2019-04-30T05:45:09.292Z,27.80
2019-04-30T05:47:38.886Z,28.67
2019-04-30T05:50:08.962Z,29.40
2019-04-30T05:52:39.695Z,26.37
2019-04-30T05:55:08.851Z,27.50
2019-04-30T05:57:40.826Z,28.30
2019-04-30T06:00:09.968Z,27.17
2019-04-30T06:02:40.058Z,34.97
2019-04-30T06:05:09.254Z,24.47
2019-04-30T06:07:39.544Z,27.40
2019-04-30T06:10:13.001Z,27.77
2019-04-30T06:12:43.225Z,28.07
2019-04-30T06:15:13.802Z,31.93
2019-04-30T06:17:44.012Z,29.13
2019-04-30T06:20:18.449Z,33.53
2019-04-30T06:22:43.117Z,27.27
2019-04-30T06:25:11.762Z,30.10
2019-04-30T06:27:40.740Z,26.57
2019-04-30T06:30:12.126Z,29.33
2019-04-30T06:32:40.836Z,27.77
2019-04-30T06:35:10.249Z,27.43
2019-04-30T06:37:39.151Z,25.43
2019-04-30T06:40:09.389Z,25.03
2019-04-30T06:43:00.650Z,24.83
2019-04-30T06:45:29.666Z,28.53
2019-04-30T06:48:00.257Z,25.20
2019-04-30T06:50:29.296Z,28.00
2019-04-30T06:53:00.978Z,22.40
2019-04-30T06:55:30.594Z,25.50
2019-04-30T06:58:11.404Z,21.80
2019-04-30T07:00:39.604Z,22.47
2019-04-30T07:03:09.409Z,21.83
2019-04-30T07:05:38.927Z,19.83
2019-04-30T07:08:36.166Z,21.33
2019-04-30T07:11:14.046Z,20.00
2019-04-30T07:13:43.989Z,18.97
2019-04-30T07:16:12.672Z,22.57
2019-04-30T07:18:41.186Z,23.23
2019-04-30T07:21:09.658Z,20.40
2019-04-30T07:23:38.808Z,20.73
2019-04-30T07:26:09.015Z,18.30
2019-04-30T07:28:46.138Z,25.33
2019-04-30T07:31:14.058Z,23.40
2019-04-30T07:33:39.678Z,26.57
2019-04-30T07:36:09.617Z,19.93
2019-04-30T07:38:45.081Z,19.57
2019-04-30T07:41:09.570Z,25.80
2019-04-30T07:43:39.341Z,19.43
2019-04-30T07:46:09.276Z,20.00
2019-04-30T07:48:40.214Z,18.73
2019-04-30T07:51:10.418Z,18.60
2019-04-30T07:53:40.364Z,21.50
2019-04-30T07:56:24.147Z,19.83
2019-04-30T07:58:39.270Z,19.53
2019-04-30T08:01:10.290Z,19.40
2019-04-30T08:03:54.755Z,20.70
2019-04-30T08:06:23.591Z,14.33
2019-04-30T08:08:57.191Z,15.60
2019-04-30T08:11:26.069Z,16.67
2019-04-30T08:13:52.754Z,21.10
2019-04-30T08:16:21.362Z,14.53
2019-04-30T08:18:49.913Z,13.30
2019-04-30T08:21:19.038Z,15.07
2019-04-30T08:23:48.980Z,13.50
2019-04-30T08:26:18.771Z,13.30
2019-04-30T08:28:48.790Z,13.70
2019-04-30T08:31:19.497Z,15.90
2019-04-30T08:33:49.081Z,17.97
2019-04-30T08:36:19.550Z,15.77
2019-04-30T08:38:49.562Z,13.00
2019-04-30T08:41:19.360Z,13.73
2019-04-30T08:43:49.630Z,13.13
2019-04-30T08:46:19.054Z,13.40
2019-04-30T08:48:51.627Z,19.63
2019-04-30T08:51:19.091Z,13.00
2019-04-30T08:53:48.600Z,16.10
2019-04-30T08:56:21.697Z,14.30
2019-04-30T08:58:49.088Z,13.80
2019-04-30T09:01:19.574Z,13.60
2019-04-30T09:03:50.955Z,11.17
2019-04-30T09:06:19.847Z,15.20
2019-04-30T09:08:49.234Z,12.17
2019-04-30T09:11:25.192Z,11.77
2019-04-30T09:13:48.795Z,13.07
2019-04-30T09:16:19.363Z,14.40
2019-04-30T09:18:49.477Z,13.10
2019-04-30T09:21:18.638Z,12.90
2019-04-30T09:23:51.975Z,13.53
2019-04-30T09:26:18.731Z,11.80
2019-04-30T09:28:49.242Z,17.20
2019-04-30T09:31:19.631Z,13.03
2019-04-30T09:33:49.256Z,12.83
2019-04-30T09:36:20.576Z,10.43
2019-04-30T09:38:48.636Z,12.17
2019-04-30T09:41:19.146Z,14.07
2019-04-30T09:43:49.243Z,9.80
2019-04-30T09:46:24.618Z,10.73
2019-04-30T09:48:47.914Z,11.77
2019-04-30T09:51:16.751Z,10.03
2019-04-30T09:53:55.610Z,13.77
2019-04-30T09:56:15.813Z,11.77
2019-04-30T09:58:44.374Z,9.80
2019-04-30T10:01:12.978Z,12.47
2019-04-30T10:03:42.117Z,10.30
2019-04-30T10:06:10.877Z,11.47
2019-04-30T10:08:47.963Z,11.83
2019-04-30T10:11:26.572Z,8.80
2019-04-30T10:13:55.033Z,12.80
2019-04-30T10:16:34.506Z,9.97
2019-04-30T10:19:03.047Z,10.30
2019-04-30T10:21:31.873Z,8.63
2019-04-30T10:24:12.456Z,11.80
2019-04-30T10:26:30.726Z,9.73
2019-04-30T10:29:00.264Z,12.10
2019-04-30T10:31:29.338Z,12.87
2019-04-30T10:33:58.571Z,13.90
2019-04-30T10:36:29.423Z,14.67
2019-04-30T10:38:59.369Z,11.30
2019-04-30T10:41:28.824Z,9.33
2019-04-30T10:43:59.118Z,9.37
2019-04-30T10:46:27.750Z,11.60
2019-04-30T10:48:56.449Z,8.87
2019-04-30T10:51:24.988Z,10.30
2019-04-30T10:53:53.553Z,8.87
2019-04-30T10:56:22.096Z,15.67
2019-04-30T10:58:50.666Z,9.00
2019-04-30T11:01:19.320Z,11.93
2019-04-30T11:03:48.037Z,12.77
2019-04-30T11:06:16.510Z,9.13
2019-04-30T11:08:45.129Z,9.00
2019-04-30T11:11:13.679Z,11.90
2019-04-30T11:13:42.522Z,9.03
2019-04-30T11:16:14.655Z,9.20
2019-04-30T11:18:41.447Z,10.97
2019-04-30T11:21:10.248Z,9.20
2019-04-30T11:23:39.541Z,8.80
2019-04-30T11:26:08.902Z,9.93
2019-04-30T11:28:37.932Z,7.80
2019-04-30T11:31:08.415Z,8.80
2019-04-30T11:33:37.335Z,8.93
2019-04-30T11:36:06.062Z,6.83
2019-04-30T11:38:34.614Z,7.60
2019-04-30T11:41:03.170Z,9.90
2019-04-30T11:43:31.659Z,8.63
2019-04-30T11:46:25.723Z,7.57
2019-04-30T11:48:54.995Z,7.77
2019-04-30T11:51:23.765Z,7.20
2019-04-30T11:53:52.394Z,7.43
2019-04-30T11:56:20.858Z,8.73
2019-04-30T11:58:49.422Z,10.17
2019-04-30T12:01:19.605Z,6.93
2019-04-30T12:03:49.718Z,8.23
2019-04-30T12:06:18.558Z,12.83
2019-04-30T12:09:00.745Z,10.83
2019-04-30T12:11:36.779Z,7.23
2019-04-30T12:14:05.881Z,8.63
2019-04-30T12:16:34.561Z,11.10
2019-04-30T12:19:03.561Z,5.77
2019-04-30T12:21:32.091Z,6.83
2019-04-30T12:24:00.666Z,6.80
2019-04-30T12:26:29.212Z,5.60
2019-04-30T12:28:57.785Z,4.53
2019-04-30T12:31:26.399Z,4.73
2019-04-30T12:33:54.953Z,9.83
2019-04-30T12:36:23.418Z,6.33
2019-04-30T12:38:51.891Z,6.40
2019-04-30T12:41:20.815Z,8.17
2019-04-30T12:43:49.706Z,5.17
2019-04-30T12:46:18.963Z,8.57
2019-04-30T12:48:50.181Z,6.70
2019-04-30T12:51:20.394Z,8.23
2019-04-30T12:53:59.739Z,5.30
2019-04-30T12:56:29.938Z,7.83
2019-04-30T12:58:58.477Z,6.83
2019-04-30T13:01:31.670Z,9.90
2019-04-30T13:03:59.385Z,7.53
2019-04-30T13:06:27.896Z,6.23
2019-04-30T13:08:57.431Z,6.43
2019-04-30T13:11:28.173Z,7.80
2019-04-30T13:13:59.632Z,10.00
2019-04-30T13:16:29.241Z,11.97
2019-04-30T13:18:59.372Z,6.33
2019-04-30T13:21:28.481Z,5.53
2019-04-30T13:23:57.153Z,5.20
2019-04-30T13:26:25.704Z,6.43
2019-04-30T13:28:58.592Z,6.30
2019-04-30T13:31:29.318Z,8.73
2019-04-30T13:34:16.096Z,9.30
2019-04-30T13:36:44.625Z,5.67
2019-04-30T13:39:14.802Z,6.90
2019-04-30T13:41:46.260Z,6.77
2019-04-30T13:44:16.286Z,7.90
2019-04-30T13:46:44.850Z,6.80
2019-04-30T13:49:13.526Z,7.70
2019-04-30T13:51:43.005Z,10.27
2019-04-30T13:54:11.638Z,7.90
2019-04-30T13:56:40.610Z,11.53
2019-04-30T13:59:09.223Z,6.80
2019-04-30T14:01:39.046Z,6.07
2019-04-30T14:04:12.301Z,7.10
2019-04-30T14:06:45.485Z,6.70
2019-04-30T14:09:27.956Z,10.23
2019-04-30T14:11:56.514Z,9.47
2019-04-30T14:14:25.052Z,8.70
2019-04-30T14:16:53.538Z,7.90
2019-04-30T14:19:22.153Z,11.03
2019-04-30T14:21:51.111Z,8.07
2019-04-30T14:24:19.650Z,8.20
2019-04-30T14:26:49.128Z,6.33
2019-04-30T14:29:17.766Z,11.70
2019-04-30T14:31:46.409Z,7.40
2019-04-30T14:34:14.942Z,7.23
2019-04-30T14:36:43.573Z,7.27
2019-04-30T14:39:16.792Z,6.53
2019-04-30T14:41:43.247Z,9.23
2019-04-30T14:44:14.569Z,8.37
2019-04-30T14:46:50.142Z,7.83
2019-04-30T14:49:36.076Z,10.10
2019-04-30T14:52:05.513Z,9.67
2019-04-30T14:54:51.983Z,8.93
2019-04-30T14:57:38.458Z,9.10
2019-04-30T15:00:11.859Z,12.40
2019-04-30T15:02:41.994Z,9.70
2019-04-30T15:05:10.871Z,6.63
2019-04-30T15:07:39.738Z,7.40
2019-04-30T15:10:08.590Z,7.73
2019-04-30T15:12:37.198Z,6.03
2019-04-30T15:15:09.105Z,9.10
2019-04-30T15:17:39.244Z,8.80
2019-04-30T15:20:08.785Z,7.90
2019-04-30T15:22:39.150Z,10.33
2019-04-30T15:25:07.850Z,10.90
2019-04-30T15:27:36.341Z,7.60
2019-04-30T15:30:10.076Z,8.87
2019-04-30T15:32:40.208Z,7.87
2019-04-30T15:35:08.938Z,7.00
2019-04-30T15:37:39.089Z,8.40
2019-04-30T15:40:09.050Z,7.53
2019-04-30T15:42:39.411Z,10.13
2019-04-30T15:45:09.273Z,9.60
2019-04-30T15:47:38.744Z,7.10
2019-04-30T15:50:09.669Z,13.40
2019-04-30T15:52:38.722Z,7.83
2019-04-30T15:55:09.169Z,11.40
2019-04-30T15:57:39.576Z,7.37
2019-04-30T16:00:08.658Z,13.03
2019-04-30T16:02:54.738Z,7.47
2019-04-30T16:05:16.636Z,6.90
2019-04-30T16:07:46.768Z,7.90
2019-04-30T16:10:18.642Z,9.70
2019-04-30T16:12:48.894Z,7.80
2019-04-30T16:15:18.548Z,8.03
2019-04-30T16:17:49.333Z,9.57
2019-04-30T16:20:18.087Z,10.20
2019-04-30T16:22:46.730Z,9.40
2019-04-30T16:25:15.266Z,9.50
2019-04-30T16:27:43.839Z,11.87
2019-04-30T16:30:13.088Z,8.57
2019-04-30T16:32:41.653Z,11.63
2019-04-30T16:35:10.250Z,10.47
2019-04-30T16:37:38.838Z,8.27
2019-04-30T16:40:08.315Z,9.03
2019-04-30T16:42:38.998Z,11.07
2019-04-30T16:45:09.315Z,8.23
2019-04-30T16:47:37.982Z,8.20
2019-04-30T16:50:09.148Z,7.60
2019-04-30T16:52:39.339Z,7.83
2019-04-30T16:55:07.964Z,7.30
2019-04-30T16:57:36.499Z,7.83
2019-04-30T17:00:09.388Z,10.90
2019-04-30T17:02:39.335Z,7.80
2019-04-30T17:05:15.569Z,12.13
2019-04-30T17:08:02.187Z,8.60
2019-04-30T17:10:44.369Z,9.13
2019-04-30T17:13:23.894Z,10.30
2019-04-30T17:15:54.066Z,8.13
2019-04-30T17:18:22.590Z,8.37
2019-04-30T17:20:51.125Z,9.30
2019-04-30T17:23:19.657Z,7.70
2019-04-30T17:25:48.219Z,10.07
2019-04-30T17:28:18.670Z,8.47
2019-04-30T17:30:49.012Z,8.37
2019-04-30T17:33:17.237Z,9.07
2019-04-30T17:35:45.813Z,7.70
2019-04-30T17:38:14.348Z,11.10
2019-04-30T17:40:42.902Z,8.30
2019-04-30T17:43:11.429Z,11.20
2019-04-30T17:45:40.006Z,13.80
2019-04-30T17:48:08.542Z,8.93
2019-04-30T17:50:37.101Z,8.60
2019-04-30T17:53:05.636Z,12.20
2019-04-30T17:55:34.345Z,10.50
2019-04-30T17:58:02.808Z,7.70
2019-04-30T18:00:33.015Z,8.30
2019-04-30T18:03:02.026Z,7.03
2019-04-30T18:05:30.735Z,10.53
2019-04-30T18:07:59.282Z,9.27
2019-04-30T18:10:28.370Z,10.60
2019-04-30T18:12:56.905Z,8.07
2019-04-30T18:15:27.041Z,9.73
2019-04-30T18:18:00.175Z,9.97
2019-04-30T18:20:39.258Z,8.20
2019-04-30T18:23:09.441Z,10.43
2019-04-30T18:25:39.599Z,9.73
2019-04-30T18:28:09.154Z,11.53
2019-04-30T18:30:39.659Z,9.20
2019-04-30T18:33:09.921Z,9.00
2019-04-30T18:35:38.890Z,10.37
2019-04-30T18:38:09.635Z,10.53
2019-04-30T18:40:39.730Z,12.50
2019-04-30T18:43:08.559Z,15.43
2019-04-30T18:45:39.403Z,28.00
2019-04-30T18:48:09.567Z,10.60
2019-04-30T18:50:37.958Z,9.83
2019-04-30T18:53:08.682Z,11.43
2019-04-30T18:55:37.313Z,13.13
2019-04-30T18:58:05.914Z,11.30
2019-04-30T19:00:39.648Z,9.00
2019-04-30T19:03:08.700Z,10.73
2019-04-30T19:05:39.366Z,8.63
2019-04-30T19:08:24.672Z,9.90
2019-04-30T19:11:11.295Z,9.47
2019-04-30T19:13:59.287Z,10.87
2019-04-30T19:16:49.451Z,12.30
2019-04-30T19:19:19.834Z,12.90
2019-04-30T19:21:48.687Z,11.73
2019-04-30T19:24:17.410Z,9.70
2019-04-30T19:26:45.966Z,7.97
2019-04-30T19:29:14.510Z,10.90
2019-04-30T19:31:43.070Z,10.97
2019-04-30T19:34:11.560Z,10.47
2019-04-30T19:36:40.667Z,10.37
2019-04-30T19:39:09.942Z,11.90
2019-04-30T19:41:38.744Z,8.90
2019-04-30T19:44:07.421Z,12.60
2019-04-30T19:46:35.897Z,9.17
2019-04-30T19:49:04.464Z,10.37
2019-04-30T19:51:33.073Z,10.20
2019-04-30T19:54:01.562Z,10.20
2019-04-30T19:56:32.747Z,9.07
2019-04-30T19:59:05.275Z,9.07
2019-04-30T20:01:30.502Z,10.70
2019-04-30T20:03:59.350Z,13.10
2019-04-30T20:06:28.736Z,9.80
2019-04-30T20:08:59.038Z,16.87
2019-04-30T20:11:27.674Z,10.03
2019-04-30T20:13:56.166Z,11.93
2019-04-30T20:16:24.642Z,12.07
2019-04-30T20:18:53.202Z,11.67
2019-04-30T20:21:28.589Z,13.60
2019-04-30T20:23:53.692Z,11.00
2019-04-30T20:26:22.513Z,10.03
2019-04-30T20:28:51.093Z,10.00
2019-04-30T20:31:19.697Z,9.93
2019-04-30T20:33:48.920Z,11.40
2019-04-30T20:36:19.042Z,15.43
2019-04-30T20:38:55.105Z,13.17
2019-04-30T20:41:25.281Z,12.47
2019-04-30T20:43:53.841Z,10.67
2019-04-30T20:46:32.093Z,10.03
2019-04-30T20:48:52.524Z,10.93
2019-04-30T20:51:21.087Z,13.80
2019-04-30T20:53:49.634Z,11.20
2019-04-30T20:56:19.149Z,12.07
2019-04-30T20:58:57.141Z,12.60
2019-04-30T21:01:19.327Z,14.00
2019-04-30T21:03:47.997Z,13.93
2019-04-30T21:06:16.472Z,13.07
2019-04-30T21:08:45.042Z,12.67
2019-04-30T21:11:13.871Z,13.33
2019-04-30T21:13:42.430Z,11.80
2019-04-30T21:16:10.902Z,11.23
2019-04-30T21:18:39.538Z,12.27
2019-04-30T21:21:08.398Z,12.83
2019-04-30T21:23:39.123Z,14.77
2019-04-30T21:26:08.578Z,18.60
2019-04-30T21:28:39.206Z,12.13
2019-04-30T21:31:25.106Z,16.03
2019-04-30T21:33:58.121Z,10.87
2019-04-30T21:36:28.447Z,13.60
2019-04-30T21:38:58.945Z,18.20
2019-04-30T21:41:27.114Z,14.50
2019-04-30T21:43:56.451Z,15.30
2019-04-30T21:46:24.999Z,15.77
2019-04-30T21:48:53.615Z,14.73
2019-04-30T21:51:22.149Z,11.10
2019-04-30T21:53:50.690Z,14.87
2019-04-30T21:56:19.184Z,13.13
2019-04-30T21:58:47.730Z,14.10
2019-04-30T22:01:18.109Z,14.03
2019-04-30T22:03:47.562Z,15.40
2019-04-30T22:06:16.581Z,13.60
2019-04-30T22:08:45.057Z,14.63
2019-04-30T22:11:13.693Z,14.60
2019-04-30T22:13:43.230Z,15.73
2019-04-30T22:16:11.973Z,12.50
2019-04-30T22:18:40.591Z,13.57
2019-04-30T22:21:09.186Z,16.37
2019-04-30T22:23:37.788Z,19.40
2019-04-30T22:26:06.294Z,15.63
2019-04-30T22:28:34.902Z,13.37
2019-04-30T22:31:03.545Z,17.47
2019-04-30T22:33:32.169Z,18.87
2019-04-30T22:36:10.976Z,12.83
2019-04-30T22:38:50.227Z,14.60
2019-04-30T22:41:20.430Z,12.90
2019-04-30T22:43:48.977Z,16.00
2019-04-30T22:46:19.469Z,14.40
2019-04-30T22:48:48.181Z,13.00
2019-04-30T22:51:16.759Z,15.70
2019-04-30T22:53:45.304Z,15.10
2019-04-30T22:56:13.882Z,19.60
2019-04-30T22:58:42.425Z,18.60
2019-04-30T23:01:21.358Z,18.17
2019-04-30T23:03:51.545Z,13.07
2019-04-30T23:06:20.189Z,17.57
2019-04-30T23:08:48.804Z,19.03
2019-04-30T23:11:17.372Z,24.10
2019-04-30T23:13:45.911Z,17.83
2019-04-30T23:16:14.749Z,18.00
2019-04-30T23:18:43.214Z,14.87
2019-04-30T23:21:11.714Z,15.80
2019-04-30T23:23:40.174Z,21.50
2019-04-30T23:26:08.691Z,15.93
2019-04-30T23:28:37.243Z,15.43
2019-04-30T23:31:05.781Z,18.97
2019-04-30T23:33:34.346Z,16.30
2019-04-30T23:36:02.883Z,17.00
2019-04-30T23:38:31.448Z,17.10
2019-04-30T23:40:59.994Z,14.60
2019-04-30T23:43:28.578Z,13.73
2019-04-30T23:45:57.094Z,15.27
2019-04-30T23:48:25.714Z,11.50
2019-04-30T23:50:54.218Z,13.43
2019-04-30T23:53:22.785Z,16.30
2019-04-30T23:55:51.263Z,16.43
2019-04-30T23:58:19.902Z,14.23
